Time;durP1;ratioP1;P1;durP2;ratioP2;P2;SDS_P1;SDS_P2;PMS_P1;PMS_P2;Temp;Humidity;BMP_temperature;BMP_pressure;BME280_temperature;BME280_humidity;BME280_pressure;Samples;Min_cycle;Max_cycle;Signal;HPM_P1;HPM_P2
2022/09/20 00:01:59;;;;;;;5.13;2.87;;;21.40;69.80;;;;;;20841667;28;20104;-56
2022/09/20 00:12:01;;;;;;;4.30;2.70;;;21.10;71.60;;;;;;20856787;28;20041;-57
2022/09/20 00:22:03;;;;;;;7.07;2.90;;;20.90;72.70;;;;;;20857082;28;20049;-56
2022/09/20 00:32:05;;;;;;;5.72;2.70;;;20.90;72.80;;;;;;20856362;28;20104;-57
2022/09/20 00:42:12;;;;;;;5.60;2.22;;;20.60;72.60;;;;;;20856938;28;20507;-56
2022/09/20 00:52:15;;;;;;;2.85;1.63;;;20.70;71.70;;;;;;20855725;28;20050;-57
2022/09/20 01:02:26;;;;;;;4.25;1.83;;;20.30;71.50;;;;;;20855900;28;20493;-55
2022/09/20 01:12:33;;;;;;;3.80;2.05;;;20.10;72.90;;;;;;20849439;28;20077;-56
2022/09/20 01:22:35;;;;;;;3.05;1.17;;;20.20;72.40;;;;;;20841548;28;20056;-55
2022/09/20 01:32:43;;;;;;;1.73;0.90;;;20.00;72.40;;;;;;20840605;28;20053;-56
2022/09/20 01:43:16;;;;;;;3.38;1.30;;;20.00;72.00;;;;;;20840385;28;20060;-56
2022/09/20 01:53:41;;;;;;;1.80;1.37;;;20.10;73.40;;;;;;20839540;28;20050;-58
2022/09/20 02:04:21;;;;;;;16.65;3.78;;;19.90;73.70;;;;;;20820417;28;20141;-57
2022/09/20 02:15:03;;;;;;;5.63;2.97;;;20.20;74.90;;;;;;20837159;28;20123;-56
2022/09/20 02:25:28;;;;;;;4.25;1.95;;;20.10;76.50;;;;;;20834513;28;20111;-56
2022/09/20 02:35:41;;;;;;;4.50;3.33;;;20.10;75.90;;;;;;20835223;28;20530;-56
2022/09/20 02:46:06;;;;;;;4.68;2.00;;;20.00;77.30;;;;;;20834774;28;20093;-56
2022/09/20 02:56:34;;;;;;;5.13;2.30;;;19.90;76.40;;;;;;20834720;28;20057;-56
2022/09/20 03:07:00;;;;;;;5.63;2.40;;;19.80;76.40;;;;;;20833772;28;20501;-55
2022/09/20 03:17:32;;;;;;;3.88;2.00;;;19.70;76.60;;;;;;20833470;28;20053;-55
2022/09/20 03:27:40;;;;;;;6.43;2.40;;;19.90;75.80;;;;;;20832404;28;20076;-58
2022/09/20 03:37:56;;;;;;;4.22;2.75;;;20.00;76.40;;;;;;20831205;28;20055;-57
2022/09/20 03:48:07;;;;;;;4.22;2.70;;;19.90;77.60;;;;;;20830359;28;20096;-56
2022/09/20 03:58:26;;;;;;;4.57;2.45;;;20.00;75.70;;;;;;20829725;28;20557;-57
2022/09/20 04:08:43;;;;;;;4.50;1.90;;;20.10;75.50;;;;;;20829500;28;20045;-57
2022/09/20 04:19:10;;;;;;;4.22;2.22;;;20.20;73.30;;;;;;20829771;28;20478;-57
2022/09/20 04:29:43;;;;;;;3.60;2.58;;;20.00;74.30;;;;;;20829567;28;20054;-57
2022/09/20 04:40:22;;;;;;;4.03;2.67;;;20.00;75.30;;;;;;20828442;28;20049;-57
2022/09/20 04:50:50;;;;;;;4.90;2.50;;;20.10;74.20;;;;;;20666710;28;20141;-57
2022/09/20 05:01:18;;;;;;;5.57;2.50;;;20.10;74.50;;;;;;20642555;28;20058;-56
2022/09/20 05:11:52;;;;;;;4.70;2.97;;;20.10;73.50;;;;;;20670607;28;20524;-56
2022/09/20 05:22:30;;;;;;;3.78;2.53;;;20.20;73.50;;;;;;20731301;28;20053;-56
2022/09/20 05:33:14;;;;;;;5.75;2.78;;;20.10;73.80;;;;;;20840519;28;20050;-56
2022/09/20 05:43:26;;;;;;;3.70;2.00;;;20.10;73.50;;;;;;20840389;28;20049;-57
2022/09/20 05:53:34;;;;;;;3.05;2.20;;;20.10;71.50;;;;;;20838942;28;20053;-56
2022/09/20 06:03:54;;;;;;;4.22;2.63;;;20.10;72.00;;;;;;20837013;28;20085;-56
2022/09/20 06:14:18;;;;;;;4.80;3.22;;;20.10;72.70;;;;;;20837557;28;20469;-56
2022/09/20 06:24:45;;;;;;;9.38;3.60;;;20.00;74.20;;;;;;20837912;28;20055;-57
2022/09/20 06:34:47;;;;;;;8.07;3.60;;;19.90;74.70;;;;;;20663335;28;20105;-57
2022/09/20 06:44:49;;;;;;;6.83;3.70;;;19.70;75.60;;;;;;20663083;28;20591;-57
2022/09/20 06:54:54;;;;;;;8.07;4.07;;;19.60;75.90;;;;;;20662244;28;20050;-55
2022/09/20 07:04:56;;;;;;;7.43;4.03;;;19.70;75.70;;;;;;20695204;28;20516;-56
2022/09/20 07:14:59;;;;;;;5.57;3.47;;;19.70;75.90;;;;;;20831954;28;20054;-57
2022/09/20 07:25:01;;;;;;;9.30;4.70;;;19.90;75.60;;;;;;20831652;28;20092;-56
2022/09/20 07:35:04;;;;;;;6.75;4.07;;;20.00;75.20;;;;;;20830383;28;20057;-57
2022/09/20 07:45:06;;;;;;;10.67;5.73;;;20.20;74.80;;;;;;20831745;28;20477;-56
2022/09/20 07:55:08;;;;;;;9.60;5.17;;;20.40;74.20;;;;;;20830092;28;20111;-57
2022/09/20 08:05:10;;;;;;;12.93;7.93;;;20.70;73.20;;;;;;20829852;28;20095;-57
2022/09/20 08:15:11;;;;;;;7.53;3.35;;;21.00;71.90;;;;;;20830410;28;20506;-57
2022/09/20 08:25:16;;;;;;;5.50;2.63;;;21.40;67.30;;;;;;20836455;28;20041;-55
2022/09/20 08:35:17;;;;;;;3.30;2.13;;;21.80;65.20;;;;;;20841623;28;20057;-54
2022/09/20 08:45:22;;;;;;;4.65;2.13;;;22.40;62.30;;;;;;20840289;28;20385;-55
2022/09/20 08:55:30;;;;;;;6.05;2.65;;;22.60;61.80;;;;;;20838657;28;20401;-55
2022/09/20 09:05:56;;;;;;;4.57;1.98;;;23.00;60.70;;;;;;20834982;28;20052;-58
2022/09/20 09:16:13;;;;;;;4.95;2.13;;;23.40;58.60;;;;;;20837435;28;20488;-57
2022/09/20 09:26:22;;;;;;;5.30;2.03;;;23.60;57.90;;;;;;20835041;28;20045;-57
2022/09/20 09:36:25;;;;;;;3.00;1.70;;;23.90;56.70;;;;;;20837335;28;20417;-56
2022/09/20 09:46:33;;;;;;;3.25;1.88;;;23.90;56.80;;;;;;20812292;28;20149;-58
2022/09/20 09:56:34;;;;;;;3.25;1.52;;;24.00;56.30;;;;;;20807949;28;20140;-56
2022/09/20 10:07:08;;;;;;;3.23;1.67;;;23.90;56.00;;;;;;20833086;28;20104;-57
2022/09/20 10:17:12;;;;;;;3.63;1.70;;;24.20;55.40;;;;;;20424722;28;20448;-55
2022/09/20 10:27:20;;;;;;;2.85;1.48;;;24.60;54.50;;;;;;20423166;28;20059;-55
2022/09/20 10:37:40;;;;;;;7.38;2.10;;;24.90;53.40;;;;;;20423244;29;20051;-58
2022/09/20 10:48:03;;;;;;;6.70;1.90;;;25.10;54.30;;;;;;20470559;28;20048;-54
2022/09/20 10:58:32;;;;;;;4.43;1.58;;;25.40;52.70;;;;;;20832419;28;20049;-54
2022/09/20 11:08:37;;;;;;;7.40;2.05;;;25.30;52.40;;;;;;20830973;28;20054;-58
2022/09/20 11:18:44;;;;;;;2.67;1.50;;;25.50;52.10;;;;;;20831504;28;20050;-55
2022/09/20 11:28:55;;;;;;;3.97;2.25;;;25.60;51.30;;;;;;20830834;28;20088;-55
2022/09/20 11:39:04;;;;;;;3.75;1.92;;;25.60;51.50;;;;;;20830618;28;20409;-55
2022/09/20 11:49:14;;;;;;;8.20;2.78;;;25.70;50.50;;;;;;20830937;28;20406;-55
2022/09/20 11:59:37;;;;;;;7.78;2.25;;;25.90;49.70;;;;;;20817264;28;20409;-57
2022/09/20 12:09:42;;;;;;;5.75;2.10;;;26.00;48.70;;;;;;20830170;28;20041;-56
2022/09/20 12:19:44;;;;;;;3.78;2.13;;;26.20;48.30;;;;;;20828674;28;20058;-57
2022/09/20 12:29:48;;;;;;;3.42;1.70;;;26.10;48.60;;;;;;20828768;28;20453;-54
2022/09/20 12:39:54;;;;;;;4.53;2.17;;;26.20;47.80;;;;;;20827933;28;20049;-58
2022/09/20 13:00:53;;;;;;;5.60;2.38;;;26.70;46.40;;;;;;20828597;28;20084;-56
2022/09/20 13:11:15;;;;;;;6.18;1.60;;;26.70;45.10;;;;;;20425252;28;20083;-54
2022/09/20 13:21:18;;;;;;;3.67;1.70;;;26.80;44.40;;;;;;20430268;28;20416;-56
2022/09/20 13:31:20;;;;;;;4.22;2.03;;;26.90;43.60;;;;;;20428481;29;20052;-55
2022/09/20 13:41:26;;;;;;;5.15;1.50;;;27.00;44.40;;;;;;20523383;28;20088;-55
2022/09/20 13:51:33;;;;;;;4.43;1.85;;;27.30;43.60;;;;;;20839771;28;20041;-55
2022/09/20 14:01:35;;;;;;;3.85;1.95;;;27.50;42.40;;;;;;20839261;28;20053;-56
2022/09/20 14:11:37;;;;;;;;;;;27.60;41.80;;;;;;20837941;28;20092;-56
2022/09/20 14:21:39;;;;;;;3.13;1.45;;;27.50;41.20;;;;;;20836228;28;20361;-57
2022/09/20 14:31:46;;;;;;;3.17;1.60;;;27.60;41.00;;;;;;20835586;28;20057;-57
2022/09/20 14:41:49;;;;;;;3.83;1.83;;;27.70;41.70;;;;;;20835111;28;20129;-57
2022/09/20 14:51:52;;;;;;;5.88;2.92;;;27.90;41.60;;;;;;20818059;28;20049;-55
2022/09/20 15:02:11;;;;;;;6.50;2.00;;;28.00;40.20;;;;;;20833386;28;20060;-55
2022/09/20 15:12:17;;;;;;;3.92;2.35;;;28.10;39.30;;;;;;20833704;28;20045;-55
2022/09/20 15:22:19;;;;;;;3.88;1.77;;;28.10;39.40;;;;;;20833202;28;20240;-55
2022/09/20 15:32:21;;;;;;;4.32;1.88;;;28.20;39.20;;;;;;20830162;28;20053;-55
2022/09/20 15:42:22;;;;;;;3.58;1.75;;;28.20;38.70;;;;;;20831075;28;20132;-56
2022/09/20 15:52:25;;;;;;;5.65;2.78;;;28.10;39.10;;;;;;20830626;28;20508;-55
2022/09/20 16:02:28;;;;;;;2.90;1.80;;;28.00;39.20;;;;;;20830760;28;20509;-56
2022/09/20 16:12:29;;;;;;;3.05;2.15;;;28.00;39.00;;;;;;20828140;28;20084;-56
2022/09/20 16:22:32;;;;;;;4.85;2.08;;;28.00;38.60;;;;;;20825968;28;20045;-54
2022/09/20 16:32:34;;;;;;;5.50;2.50;;;28.00;38.60;;;;;;20826106;28;20049;-55
2022/09/20 16:42:36;;;;;;;4.18;2.53;;;27.80;39.30;;;;;;20831127;28;20123;-56
2022/09/20 16:52:38;;;;;;;4.90;2.30;;;27.70;41.00;;;;;;20813836;28;20092;-55
2022/09/20 17:02:40;;;;;;;4.45;2.25;;;27.60;40.10;;;;;;20829078;28;20076;-56
2022/09/20 17:12:45;;;;;;;4.43;2.70;;;27.60;40.00;;;;;;20842730;28;20494;-56
2022/09/20 17:22:47;;;;;;;4.25;2.40;;;27.40;40.30;;;;;;20838406;28;20141;-56
2022/09/20 17:32:50;;;;;;;5.85;2.72;;;27.30;40.90;;;;;;20797184;28;20489;-55
2022/09/20 17:42:53;;;;;;;6.78;3.30;;;27.20;41.10;;;;;;20797696;28;20049;-57
2022/09/20 17:52:55;;;;;;;6.28;3.42;;;27.10;41.20;;;;;;20794402;28;20041;-56
2022/09/20 18:02:56;;;;;;;6.40;4.25;;;27.00;42.70;;;;;;20794420;28;20050;-55
2022/09/20 18:12:58;;;;;;;12.23;7.75;;;26.90;44.40;;;;;;20795028;28;20045;-57
2022/09/20 18:22:59;;;;;;;;;;;26.70;44.10;;;;;;20794454;28;20179;-56
2022/09/20 18:33:01;;;;;;;10.02;6.53;;;26.60;45.80;;;;;;20825553;28;20382;-56
2022/09/20 18:43:04;;;;;;;10.63;6.13;;;26.50;45.90;;;;;;20834810;28;20409;-56
2022/09/20 18:53:05;;;;;;;14.95;8.57;;;26.40;47.10;;;;;;20833331;28;20060;-55
2022/09/20 19:03:18;;;;;;;12.60;7.72;;;26.40;47.90;;;;;;20832425;28;20053;-57
2022/09/20 19:13:44;;;;;;;10.68;7.30;;;26.40;47.90;;;;;;20832879;28;20081;-59
2022/09/20 19:23:52;;;;;;;12.45;7.95;;;26.30;47.40;;;;;;20830408;28;20056;-56
2022/09/20 19:33:56;;;;;;;13.82;8.40;;;26.20;47.20;;;;;;20830847;28;20055;-57
2022/09/20 19:44:33;;;;;;;15.90;8.10;;;26.10;46.70;;;;;;20831159;28;20053;-56
2022/09/20 19:54:37;;;;;;;17.23;8.27;;;25.90;47.40;;;;;;20498619;29;20054;-57
2022/09/20 20:04:39;;;;;;;11.02;7.85;;;25.70;48.20;;;;;;20498021;28;20055;-56
2022/09/20 20:14:59;;;;;;;12.98;6.93;;;25.60;49.20;;;;;;20497806;28;20047;-56
2022/09/20 20:25:00;;;;;;;14.40;7.90;;;25.40;50.30;;;;;;20608340;28;20132;-56
2022/09/20 20:35:02;;;;;;;12.10;8.00;;;25.10;51.80;;;;;;20845381;28;20069;-56
2022/09/20 20:45:04;;;;;;;6.93;4.97;;;25.00;51.90;;;;;;20845614;28;20048;-58
2022/09/20 20:55:06;;;;;;;9.80;4.55;;;24.90;52.00;;;;;;20843830;28;20049;-56
2022/09/20 21:05:08;;;;;;;7.82;4.05;;;24.70;53.50;;;;;;20842375;28;20053;-55
2022/09/20 21:15:10;;;;;;;15.77;4.72;;;24.40;54.80;;;;;;20842488;28;20413;-56
2022/09/20 21:25:12;;;;;;;8.48;5.00;;;24.30;55.30;;;;;;20841229;28;20056;-56
2022/09/20 21:35:13;;;;;;;7.63;4.07;;;24.20;55.70;;;;;;20838649;28;20049;-55
2022/09/20 21:45:19;;;;;;;8.93;4.37;;;24.20;55.80;;;;;;20839473;28;20088;-57
2022/09/20 21:55:20;;;;;;;7.75;4.65;;;24.20;55.50;;;;;;20839931;28;20045;-56
2022/09/20 22:05:21;;;;;;;8.38;4.35;;;24.10;55.10;;;;;;20838326;28;20128;-56
2022/09/20 22:15:23;;;;;;;8.57;4.80;;;24.10;56.70;;;;;;20838025;28;20057;-56
2022/09/20 22:25:25;;;;;;;8.13;4.30;;;23.80;58.00;;;;;;20837539;28;20405;-56
2022/09/20 22:35:26;;;;;;;8.33;4.03;;;23.70;59.00;;;;;;20835248;28;20416;-56
2022/09/20 22:45:27;;;;;;;10.27;4.20;;;23.50;59.90;;;;;;20835640;28;20558;-56
2022/09/20 22:55:30;;;;;;;6.03;4.43;;;23.30;60.50;;;;;;20835341;28;20111;-56
2022/09/20 23:05:32;;;;;;;6.28;4.20;;;23.20;60.90;;;;;;20833784;28;20124;-55
2022/09/20 23:15:33;;;;;;;8.10;4.47;;;23.10;61.60;;;;;;20834187;28;20127;-61
2022/09/20 23:25:35;;;;;;;8.90;4.63;;;22.90;62.00;;;;;;20832095;28;20099;-55
2022/09/20 23:35:44;;;;;;;7.70;4.88;;;22.90;62.30;;;;;;20830872;28;20116;-56
2022/09/20 23:45:45;;;;;;;7.45;4.97;;;22.70;62.70;;;;;;20831138;28;20742;-56
2022/09/20 23:55:47;;;;;;;6.18;4.93;;;22.60;63.40;;;;;;20829543;28;20132;-57
